Portada
METAR-TAF:

METAR-TAF

Aeroports :

Najaf, Iraq

latitud: 31-59-23N, longitud: 44-24-15E, altitud: 31 m

Observació

L'informe es va fer fa 1 hora i 7 minuts, a les 12:00 UTC
Vent 12 kt del Nord/Nord-Oest
Temperatura 46°C
Humitat 11%
Pressió 999 hPa
Visibilitat: 6000 m

METAR: ORNI 081200Z 34012KT 6000 NSC 46/09 Q0999 NOSIG

Hora: 16:07 (13:07 UTC)

Pronòstic

L'informe es va fer fa 2 hores i 7 minuts, a les 11:00 UTC
Pronòstic vàlid del 08 a les 12 UTC al 09 a les 12 UTC
Vent 12 kt del Nord/Nord-Oest
Visibilitat: 7000 m

TAF: ORNI 081100Z 0812/0912 33012KT 7000 NSC

Observacions i pronòstics meteorològics de més de 4000 aeroports (METAR i TAF).

Les estacions disponibles són els punts grocs i vermells al mapa.

Posi el ratolí al punt desitjat per veure el nom de l'estació.

Feu clic per veure les observacions i els pronòstics meteorològics.

Per canviar el mapa: feu clic els botons verds amb una creu de color negre per apropar; al botó verd amb un guió per allunyar la imatge; o en les fletxes verdes per a mapes adjacents.


METAR-TAF: